This is the latest recevied weather packets stored in our database for station/object KQ4NAL. If no packets are shown the sender has not sent any weather packets the latest 1 day(s).
| Time | Temp. | Humidity | Pressure | Rain* | Wind** | Luminosity | Snow |
|---|---|---|---|---|---|---|---|
| 1777984346 | 16.11° C | 85% | 1010.5 hPa | 0 mm | 1.34 m/s, 219° | 188 W/m² | - |
| 1777984042 | 16.11° C | 86% | 1010.3 hPa | 0 mm | 0 m/s | 184 W/m² | - |
| 1777983740 | 15.56° C | 87% | 1010.1 hPa | 0 mm | 1.79 m/s, 198° | 149 W/m² | - |
| 1777983436 | 15.56° C | 87% | 1010.3 hPa | 0 mm | 1.79 m/s, 202° | 100 W/m² | - |
| 1777983133 | 15.56° C | 87% | 1010.3 hPa | 0 mm | 2.24 m/s, 211° | 75 W/m² | - |
| 1777982829 | 15.56° C | 87% | 1010.7 hPa | 0 mm | 1.79 m/s, 238° | 62 W/m² | - |
| 1777982525 | 15.56° C | 87% | 1010.7 hPa | 0 mm | 1.34 m/s, 214° | 75 W/m² | - |
| 1777982219 | 15.56° C | 87% | 1010.7 hPa | 0 mm | 0.45 m/s, 273° | 83 W/m² | - |
| 1777981917 | 15.56° C | 88% | 1010.7 hPa | 0 mm | 1.79 m/s, 143° | 88 W/m² | - |
| 1777981614 | 15° C | 88% | 1010.6 hPa | 0 mm | 1.79 m/s, 203° | 76 W/m² | - |
| 1777981310 | 15° C | 88% | 1010.8 hPa | 0 mm | 1.34 m/s, 94° | 59 W/m² | - |
| 1777981007 | 15° C | 88% | 1010.6 hPa | 0 mm | 1.79 m/s, 193° | 39 W/m² | - |
| 1777980703 | 15° C | 88% | 1010.8 hPa | 0 mm | 1.34 m/s, 230° | 26 W/m² | - |
| 1777980400 | 15° C | 89% | 1010.5 hPa | 0 mm | 1.79 m/s, 185° | 36 W/m² | - |
| 1777980098 | 15° C | 89% | 1010.5 hPa | 0 mm | 1.34 m/s, 226° | 29 W/m² | - |
| 1777979797 | 15° C | 88% | 1010.7 hPa | 0 mm | 0.89 m/s, 256° | 21 W/m² | - |
| 1777979493 | 15° C | 88% | 1010.4 hPa | 0 mm | 1.34 m/s, 242° | 17 W/m² | - |
| 1777979189 | 15° C | 88% | 1010.4 hPa | 0 mm | 0.89 m/s, 97° | 17 W/m² | - |
| 1777978887 | 15° C | 87% | 1010.5 hPa | 0 mm | 0 m/s | 13 W/m² | - |
| 1777978584 | 15° C | 86% | 1010.5 hPa | 0 mm | 0.45 m/s, 347° | 12 W/m² | - |
| 1777978279 | 15.56° C | 85% | 1010.4 hPa | 0 mm | 0 m/s | 6 W/m² | - |
| 1777977976 | 15.56° C | 84% | 1010.6 hPa | 0 mm | 0.45 m/s, 346° | 3 W/m² | - |
| 1777977674 | 15.56° C | 83% | 1010.7 hPa | 0 mm | 0.45 m/s, 349° | 3 W/m² | - |
| 1777977370 | 15.56° C | 81% | 1010.6 hPa | 0 mm | 0.45 m/s, 354° | 1 W/m² | - |
| 1777977068 | 16.11° C | 79% | 1010.5 hPa | 0 mm | 1.79 m/s, 341° | 0 W/m² | - |
* Rain latest hour (hover to see other rain measurements)
** Current wind speed in m/s (hover to see current wind gust speed)